KLWB/LWB METAR and TAF weather

Enter ICAO airport designator
Station Type Date Time Source
KLWB METAR 2018/12/11 20:35 UTC NOAA

KLWB 112035Z AUTO 24007KT 10SM CLR 02/M09 A3007 RMK AO2 T00171092


Station Type Date Time Source
KLWB Decoded METAR 2018/12/11 20:35 UTC NOAA

Lewisburg / Greenbrier, WV, United States (KLWB) 37-52N 080-24W
Dec 11, 2018 - 03:35 PM EST / 2018.12.11 2035 UTC
Wind: from the WSW (240 degrees) at 8 MPH (7 KT):0
Visibility: 10 mile(s):0
Sky conditions: clear
Temperature: 35.1 F (1.7 C)
Dew Point: 15.4 F (-9.2 C)
Relative Humidity: 44%
Pressure (altimeter): 30.07 in. Hg (1018 hPa)
ob: KLWB 112035Z AUTO 24007KT 10SM CLR 02/M09 A3007 RMK AO2 T00171092
cycle: 20

Station Type Date Time Source
KLWB TAF 2018/12/11 18:27 UTC NOAA

TAF KLWB 111723Z 1118/1218 26008KT P6SM SKC
FM120300 28006KT P6SM SKC WS020/29040KT
FM120900 29005KT P6SM SKC WS020/31035KT
FM121000 29005KT P6SM FEW200
FM121200 27007KT P6SM SCT250


Example: see airport list